Time;durP1;ratioP1;P1;durP2;ratioP2;P2;SDS_P1;SDS_P2;PMS_P1;PMS_P2;Temp;Humidity;BMP_temperature;BMP_pressure;BME280_temperature;BME280_humidity;BME280_pressure;Samples;Min_cycle;Max_cycle;Signal;HPM_P1;HPM_P2
2021/08/28 00:00:16;;;;;;;7.40;2.50;;;;;;;10.50;77.64;100015.51;115768;1205;22423;-74
2021/08/28 00:03:04;;;;;;;10.60;2.40;;;;;;;10.47;77.50;100012.52;115830;1208;22297;-74
2021/08/28 00:05:44;;;;;;;;;;;;;;;;;;;;;
2021/08/28 00:08:16;;;;;;;8.50;3.00;;;;;;;10.43;77.64;100010.92;115762;1205;22259;-75
2021/08/28 00:10:48;;;;;;;11.10;2.90;;;;;;;10.41;77.76;100008.61;115822;1205;22169;-75
2021/08/28 00:13:19;;;;;;;11.90;3.10;;;;;;;10.41;77.99;100007.84;115870;1202;22198;-74
2021/08/28 00:15:50;;;;;;;12.10;3.60;;;;;;;10.39;78.15;100007.67;115817;1205;22254;-74
2021/08/28 00:18:21;;;;;;;14.90;3.00;;;;;;;10.37;78.23;100006.67;115777;1205;22315;-74
2021/08/28 00:20:52;;;;;;;12.40;3.60;;;;;;;10.37;78.22;100014.98;115799;1204;22263;-74
2021/08/28 00:23:23;;;;;;;11.20;3.20;;;;;;;10.39;78.29;100009.39;115813;1204;22904;-74
2021/08/28 00:25:54;;;;;;;12.10;2.90;;;;;;;10.39;78.29;100008.80;115772;1205;22978;-74
2021/08/28 00:28:27;;;;;;;11.80;3.50;;;;;;;10.38;78.20;100010.79;115785;1205;22323;-74
2021/08/28 00:30:57;;;;;;;12.50;2.90;;;;;;;10.35;78.19;100011.98;115806;1205;22293;-74
2021/08/28 00:33:28;;;;;;;9.50;2.50;;;;;;;10.34;78.02;100010.63;115796;1203;23134;-74
2021/08/28 00:35:59;;;;;;;10.40;2.90;;;;;;;10.31;78.05;100014.45;115823;1205;22336;-74
2021/08/28 00:38:30;;;;;;;9.20;2.90;;;;;;;10.29;78.10;100014.15;115850;1205;23108;-74
2021/08/28 00:41:22;;;;;;;9.70;2.90;;;;;;;10.26;78.29;100010.05;115786;1209;22306;-74
2021/08/28 00:43:53;;;;;;;12.00;3.40;;;;;;;10.23;78.33;100014.71;115823;1209;22314;-75
2021/08/28 00:46:23;;;;;;;11.80;2.90;;;;;;;10.22;78.51;100015.81;115734;1209;22346;-75
2021/08/28 00:48:54;;;;;;;9.60;2.50;;;;;;;10.23;78.61;100019.61;115768;1205;22115;-76
2021/08/28 00:51:25;;;;;;;12.60;2.90;;;;;;;10.21;78.56;100019.70;115846;1205;22350;-75
2021/08/28 00:53:56;;;;;;;7.80;2.20;;;;;;;10.20;78.48;100021.77;115797;1209;22959;-75
2021/08/28 00:56:27;;;;;;;10.20;3.00;;;;;;;10.17;78.63;100020.59;115803;1205;22116;-76
2021/08/28 00:58:59;;;;;;;11.00;3.00;;;;;;;10.15;78.38;100020.61;115798;1207;22113;-75
2021/08/28 01:01:33;;;;;;;12.10;2.60;;;;;;;10.12;78.53;100020.67;115826;1204;22343;-75
2021/08/28 01:04:07;;;;;;;13.60;3.30;;;;;;;10.09;78.38;100020.11;115826;1203;23096;-76
2021/08/28 01:06:46;;;;;;;14.20;3.30;;;;;;;10.04;78.58;100020.14;115815;1204;22335;-75
2021/08/28 01:09:21;;;;;;;18.20;3.40;;;;;;;10.00;78.61;100028.42;115827;1205;22323;-75
2021/08/28 01:12:00;;;;;;;11.50;3.40;;;;;;;10.01;78.89;100029.11;115811;1205;22175;-75
2021/08/28 01:14:32;;;;;;;13.30;3.00;;;;;;;10.01;78.94;100031.80;115768;1205;22221;-75
2021/08/28 01:17:06;;;;;;;9.10;2.50;;;;;;;10.02;78.98;100027.25;115804;1205;23105;-75
2021/08/28 01:19:59;;;;;;;7.90;2.00;;;;;;;10.02;78.93;100026.23;115847;1210;22898;-75
2021/08/28 01:22:32;;;;;;;6.50;1.90;;;;;;;10.00;78.89;100026.96;115750;1205;22305;-76
2021/08/28 01:25:05;;;;;;;8.60;2.30;;;;;;;9.98;78.93;100027.42;115835;1205;22857;-75
2021/08/28 01:27:42;;;;;;;8.80;1.80;;;;;;;9.96;79.11;100029.58;115796;1205;22260;-76
2021/08/28 01:30:14;;;;;;;8.10;1.90;;;;;;;9.95;79.12;100032.56;115825;1204;22211;-75
2021/08/28 01:32:52;;;;;;;6.70;1.90;;;;;;;9.94;79.06;100033.40;115755;1205;22350;-76
2021/08/28 01:35:24;;;;;;;7.10;1.90;;;;;;;9.94;79.12;100042.05;115810;1204;22304;-75
2021/08/28 01:37:55;;;;;;;6.30;1.90;;;;;;;9.95;79.44;100039.91;115799;1205;22286;-75
2021/08/28 01:40:28;;;;;;;6.50;1.90;;;;;;;10.01;79.63;100039.70;115855;1204;22335;-75
2021/08/28 01:43:20;;;;;;;6.40;1.60;;;;;;;10.03;79.48;100040.75;115843;1203;22345;-76
2021/08/28 01:45:52;;;;;;;5.70;1.40;;;;;;;10.03;79.49;100044.16;115842;1203;22353;-75
2021/08/28 01:48:23;;;;;;;8.50;2.50;;;;;;;10.04;79.40;100042.94;115833;1203;22318;-75
2021/08/28 01:50:54;;;;;;;7.60;2.50;;;;;;;10.04;79.28;100041.33;115828;1205;22343;-75
2021/08/28 01:53:26;;;;;;;7.40;1.90;;;;;;;10.03;79.35;100039.54;115844;1205;22424;-75
2021/08/28 01:55:57;;;;;;;7.30;1.80;;;;;;;10.02;79.32;100042.66;115843;1205;22171;-75
2021/08/28 01:58:31;;;;;;;7.20;1.50;;;;;;;10.01;79.43;100043.59;115824;1205;22387;-75
2021/08/28 02:01:02;;;;;;;5.00;1.40;;;;;;;10.01;79.61;100038.23;115850;1205;22294;-75
2021/08/28 02:03:33;;;;;;;5.40;1.50;;;;;;;10.01;79.40;100038.59;115842;1204;22280;-75
2021/08/28 02:06:07;;;;;;;5.70;1.50;;;;;;;9.99;79.52;100037.48;115833;1205;23075;-75
2021/08/28 02:08:46;;;;;;;5.50;1.60;;;;;;;9.94;79.44;100038.77;115784;1204;22420;-76
2021/08/28 02:11:24;;;;;;;5.30;1.40;;;;;;;9.90;79.50;100035.89;115827;1209;22801;-75
2021/08/28 02:14:02;;;;;;;7.50;1.70;;;;;;;9.87;79.62;100033.91;115843;1204;22195;-75
2021/08/28 02:16:35;;;;;;;4.60;1.50;;;;;;;9.85;79.63;100031.35;115845;1204;22306;-75
2021/08/28 02:19:13;;;;;;;5.70;1.50;;;;;;;9.83;79.65;100030.20;115823;1203;23141;-75
2021/08/28 02:21:46;;;;;;;4.30;1.30;;;;;;;9.81;79.69;100024.68;115774;1205;23195;-75
2021/08/28 02:24:20;;;;;;;5.90;1.50;;;;;;;9.78;79.67;100023.06;115829;1204;22426;-75
2021/08/28 02:26:55;;;;;;;5.30;1.50;;;;;;;9.77;79.76;100023.59;115826;1203;22192;-75
2021/08/28 02:29:35;;;;;;;4.60;1.10;;;;;;;9.72;79.83;100022.70;115815;1205;22911;-75
2021/08/28 02:32:07;;;;;;;7.00;1.60;;;;;;;9.72;79.90;100023.86;115865;1205;22182;-75
2021/08/28 02:34:40;;;;;;;6.90;1.40;;;;;;;9.71;79.93;100029.88;115805;1203;23312;-75
2021/08/28 02:37:13;;;;;;;7.50;1.20;;;;;;;9.70;79.90;100031.23;115828;1205;22310;-75
2021/08/28 02:39:45;;;;;;;5.80;1.50;;;;;;;9.70;80.07;100028.23;115869;1204;22318;-75
2021/08/28 02:42:16;;;;;;;6.60;1.30;;;;;;;9.70;80.10;100030.06;115857;1203;22339;-75
2021/08/28 02:44:48;;;;;;;4.60;1.40;;;;;;;9.70;80.00;100027.98;115846;1204;23046;-75
2021/08/28 02:47:21;;;;;;;6.40;1.60;;;;;;;9.72;80.18;100027.92;115794;1205;22346;-75
2021/08/28 02:49:53;;;;;;;4.80;1.50;;;;;;;9.73;80.24;100031.80;115842;1203;23030;-75
2021/08/28 02:52:45;;;;;;;8.80;1.30;;;;;;;9.74;80.28;100035.05;115835;1205;22742;-75
2021/08/28 02:55:19;;;;;;;4.90;1.20;;;;;;;9.75;80.20;100037.24;115828;1205;22192;-75
2021/08/28 02:57:52;;;;;;;4.50;1.30;;;;;;;9.74;80.20;100039.81;115790;1205;22380;-75
2021/08/28 03:00:23;;;;;;;5.30;1.30;;;;;;;9.74;80.30;100039.56;115810;1205;22197;-75
2021/08/28 03:03:18;;;;;;;5.20;1.20;;;;;;;9.74;80.44;100037.79;115844;1205;22856;-75
2021/08/28 03:05:52;;;;;;;4.90;1.40;;;;;;;9.76;80.47;100035.59;115787;1205;22204;-75
2021/08/28 03:08:23;;;;;;;10.70;1.90;;;;;;;9.75;80.55;100036.25;115811;1205;22323;-75
2021/08/28 03:10:56;;;;;;;4.50;1.20;;;;;;;9.74;80.64;100034.89;115833;1205;22304;-75
2021/08/28 03:13:29;;;;;;;6.20;1.20;;;;;;;9.73;80.72;100033.02;115770;1204;22190;-75
2021/08/28 03:16:10;;;;;;;6.10;1.30;;;;;;;9.74;80.72;100035.20;115834;1203;22334;-75
2021/08/28 03:18:44;;;;;;;5.60;1.70;;;;;;;9.76;80.97;100036.31;115789;1205;22276;-75
2021/08/28 03:21:17;;;;;;;6.50;1.40;;;;;;;9.78;80.82;100043.76;115816;1210;23349;-75
2021/08/28 03:23:49;;;;;;;4.90;1.20;;;;;;;9.80;80.92;100041.00;115807;1203;22344;-75
2021/08/28 03:26:32;;;;;;;;;;;;;;;;;;;;;
2021/08/28 03:29:07;;;;;;;8.10;1.50;;;;;;;9.83;81.03;100054.11;115864;1195;22341;-75
2021/08/28 03:31:40;;;;;;;5.10;1.40;;;;;;;9.83;81.09;100055.84;115847;1207;22207;-75
2021/08/28 03:34:23;;;;;;;;;;;;;;;;;;;;;
2021/08/28 03:36:53;;;;;;;6.90;1.50;;;;;;;9.87;81.35;100055.66;115788;1206;23190;-75
2021/08/28 03:39:25;;;;;;;7.30;1.50;;;;;;;9.88;81.47;100052.14;115843;1204;22927;-75
2021/08/28 03:41:56;;;;;;;6.90;1.50;;;;;;;9.91;81.55;100050.79;115811;1203;22307;-75
2021/08/28 03:44:27;;;;;;;8.40;1.70;;;;;;;9.95;81.38;100049.17;115831;1204;22998;-75
2021/08/28 03:46:58;;;;;;;7.20;2.00;;;;;;;9.97;81.51;100051.91;115854;1205;22315;-75
2021/08/28 03:49:29;;;;;;;8.00;2.00;;;;;;;9.99;81.52;100050.92;115828;1204;22302;-75
2021/08/28 03:51:59;;;;;;;6.20;1.80;;;;;;;10.02;81.59;100054.21;115835;1205;22305;-75
2021/08/28 03:54:32;;;;;;;5.30;1.50;;;;;;;10.05;81.70;100054.59;115824;1204;22334;-75
2021/08/28 03:57:03;;;;;;;5.60;1.30;;;;;;;10.08;81.59;100052.86;115799;1205;22785;-75
2021/08/28 03:59:55;;;;;;;7.70;1.80;;;;;;;10.10;81.44;100042.23;115824;1204;22348;-75
2021/08/28 04:02:26;;;;;;;7.70;1.60;;;;;;;10.10;81.57;100038.70;115817;1207;23071;-75
2021/08/28 04:04:56;;;;;;;5.60;1.40;;;;;;;10.11;81.65;100045.08;115860;1204;22271;-75
2021/08/28 04:07:27;;;;;;;8.30;1.90;;;;;;;10.13;81.57;100047.81;115790;1203;22186;-75
2021/08/28 04:09:58;;;;;;;5.60;1.40;;;;;;;10.15;81.77;100047.39;115798;1203;22318;-75
2021/08/28 04:12:31;;;;;;;10.90;1.90;;;;;;;10.18;81.81;100052.52;115764;1205;22187;-75
2021/08/28 04:15:02;;;;;;;6.90;1.50;;;;;;;10.20;81.70;100050.53;115781;1209;22305;-75
2021/08/28 04:17:33;;;;;;;5.90;1.60;;;;;;;10.23;81.83;100051.19;115780;1205;22297;-75
2021/08/28 04:20:18;;;;;;;6.40;1.60;;;;;;;10.25;81.91;100053.14;115862;1204;22287;-75
2021/08/28 04:22:48;;;;;;;6.70;1.40;;;;;;;10.27;82.06;100050.88;115837;1204;22865;-75
2021/08/28 04:25:19;;;;;;;7.70;1.90;;;;;;;10.30;82.01;100052.30;115803;1203;22362;-75
2021/08/28 04:27:50;;;;;;;6.60;1.30;;;;;;;10.32;81.82;100054.34;115803;1204;22776;-75
2021/08/28 04:30:25;;;;;;;8.80;2.10;;;;;;;10.34;81.99;100055.52;115817;1204;22342;-75
2021/08/28 04:33:04;;;;;;;4.70;1.50;;;;;;;10.36;82.14;100058.77;115824;1203;22790;-75
2021/08/28 04:35:35;;;;;;;5.10;1.50;;;;;;;10.37;82.07;100055.42;115799;1203;22269;-76
2021/08/28 04:38:06;;;;;;;8.20;1.40;;;;;;;10.39;82.11;100055.21;115812;1204;22330;-76
2021/08/28 04:40:38;;;;;;;5.80;1.60;;;;;;;10.41;82.19;100056.86;115822;1203;22790;-75
2021/08/28 04:43:09;;;;;;;8.40;1.90;;;;;;;10.42;82.17;100061.54;115770;1205;22146;-75
2021/08/28 04:45:40;;;;;;;8.10;1.60;;;;;;;10.43;82.28;100060.25;115800;1203;22355;-75
2021/08/28 04:48:11;;;;;;;6.90;1.70;;;;;;;10.47;82.42;100069.08;115815;1203;22307;-75
2021/08/28 04:50:42;;;;;;;7.50;1.60;;;;;;;10.50;82.27;100070.27;115744;1203;22295;-75
2021/08/28 04:53:12;;;;;;;7.10;1.40;;;;;;;10.54;82.55;100072.72;115793;1203;22226;-75
2021/08/28 04:55:45;;;;;;;5.40;1.30;;;;;;;10.57;82.38;100070.08;115815;1203;22355;-75
2021/08/28 04:58:16;;;;;;;7.20;1.30;;;;;;;10.55;82.31;100072.42;115758;1203;22319;-75
2021/08/28 05:00:48;;;;;;;6.20;1.30;;;;;;;10.53;82.36;100072.89;115826;1203;22399;-76
2021/08/28 05:03:19;;;;;;;4.90;1.50;;;;;;;10.52;82.50;100071.77;115803;1204;23381;-77
2021/08/28 05:05:54;;;;;;;6.60;1.80;;;;;;;10.57;82.64;100073.21;115775;1203;23094;-77
2021/08/28 05:08:24;;;;;;;6.80;1.50;;;;;;;10.63;82.90;100071.23;115800;1203;22935;-75
2021/08/28 05:10:55;;;;;;;7.10;1.50;;;;;;;10.66;82.76;100064.81;115789;1197;22309;-75
2021/08/28 05:13:26;;;;;;;8.60;1.40;;;;;;;10.66;82.76;100065.27;115765;1205;22955;-75
2021/08/28 05:15:57;;;;;;;6.70;1.70;;;;;;;10.69;82.91;100067.38;115794;1203;22575;-75
2021/08/28 05:18:28;;;;;;;5.40;1.50;;;;;;;10.74;82.98;100066.58;115798;1203;22305;-75
2021/08/28 05:20:59;;;;;;;9.20;1.90;;;;;;;10.79;83.04;100066.95;115811;1203;22155;-75
2021/08/28 05:23:29;;;;;;;7.60;2.10;;;;;;;10.82;83.15;100068.68;115790;1203;23383;-75
2021/08/28 05:26:01;;;;;;;7.80;1.80;;;;;;;10.85;83.13;100072.04;115836;1203;22340;-76
2021/08/28 05:28:43;;;;;;;;;;;;;;;;;;;;;
2021/08/28 05:31:14;;;;;;;8.30;1.80;;;;;;;10.90;83.40;100078.04;115827;1203;22327;-75
2021/08/28 05:33:46;;;;;;;7.70;1.80;;;;;;;10.96;83.61;100079.45;115819;1203;22369;-75
2021/08/28 05:39:07;;;;;;;10.80;1.90;;;;;;;11.09;83.64;100083.81;115686;1205;22354;-75
2021/08/28 05:41:39;;;;;;;5.80;2.10;;;;;;;11.15;83.56;100081.16;115824;1203;22277;-75
2021/08/28 05:44:11;;;;;;;10.90;2.30;;;;;;;11.21;83.68;100081.75;115801;1204;22390;-75
2021/08/28 05:46:42;;;;;;;8.00;1.90;;;;;;;11.25;83.56;100085.36;115807;1203;22338;-74
2021/08/28 05:49:13;;;;;;;8.50;2.10;;;;;;;11.29;83.64;100079.71;115821;1203;22173;-75
2021/08/28 05:51:45;;;;;;;7.40;2.00;;;;;;;11.30;83.63;100073.33;115731;1204;22329;-75
2021/08/28 05:54:16;;;;;;;9.20;2.10;;;;;;;11.32;83.70;100067.63;115823;1203;22299;-74
2021/08/28 05:56:47;;;;;;;6.80;2.00;;;;;;;11.37;83.82;100068.09;115843;1203;22140;-76
2021/08/28 05:59:18;;;;;;;9.50;2.20;;;;;;;11.46;84.04;100069.86;115828;1203;22349;-75
2021/08/28 06:01:49;;;;;;;8.00;2.40;;;;;;;11.54;84.28;100079.28;115759;1203;22932;-76
2021/08/28 06:04:21;;;;;;;11.50;2.20;;;;;;;11.63;84.46;100082.02;115825;1203;23241;-75
2021/08/28 06:06:52;;;;;;;7.50;2.30;;;;;;;11.70;84.41;100076.81;115815;1203;22159;-78
2021/08/28 06:09:22;;;;;;;7.90;2.10;;;;;;;11.78;84.45;100078.17;115830;1196;22319;-75
2021/08/28 06:11:55;;;;;;;9.70;2.00;;;;;;;11.80;84.29;100081.86;115849;1203;22882;-76
2021/08/28 06:14:25;;;;;;;9.30;2.60;;;;;;;11.86;84.59;100082.13;115860;1204;23392;-77
2021/08/28 06:19:29;;;;;;;10.90;2.30;;;;;;;12.04;84.36;100079.02;110137;1221;546387;-58
2021/08/28 06:22:01;;;;;;;11.60;2.10;;;;;;;12.11;84.83;100077.88;111561;1205;22427;-58
2021/08/28 06:24:32;;;;;;;9.00;2.30;;;;;;;12.16;84.28;100073.25;111563;1205;22471;-58
2021/08/28 06:27:04;;;;;;;8.00;2.30;;;;;;;12.21;84.12;100071.05;111477;1205;22467;-59
2021/08/28 06:29:35;;;;;;;11.60;3.00;;;;;;;12.29;84.42;100077.73;111542;1205;22451;-58
2021/08/28 06:32:07;;;;;;;9.70;2.40;;;;;;;12.36;84.64;100082.17;111524;1205;26892;-60
2021/08/28 06:34:38;;;;;;;12.50;2.50;;;;;;;12.46;84.99;100085.02;111596;1205;22450;-60
2021/08/28 06:37:10;;;;;;;10.50;3.20;;;;;;;12.54;84.57;100085.54;111626;1205;24076;-59
2021/08/28 06:39:42;;;;;;;10.80;3.30;;;;;;;12.61;84.53;100086.94;111562;1205;24160;-59
2021/08/28 06:42:14;;;;;;;8.90;2.50;;;;;;;12.66;84.30;100082.13;111660;1205;24107;-59
2021/08/28 06:44:47;;;;;;;10.80;3.00;;;;;;;12.71;84.41;100080.75;111915;1205;22822;-59
2021/08/28 06:47:18;;;;;;;11.40;2.60;;;;;;;12.76;84.53;100083.39;112179;1205;22439;-60
2021/08/28 06:49:50;;;;;;;10.60;3.30;;;;;;;12.81;84.44;100083.83;112139;1205;22454;-60
2021/08/28 06:52:20;;;;;;;9.40;3.40;;;;;;;12.88;84.52;100082.81;112157;1204;23101;-61
2021/08/28 06:54:53;;;;;;;16.20;3.40;;;;;;;12.98;84.45;100084.20;112197;1203;22656;-62
2021/08/28 06:57:24;;;;;;;12.50;3.30;;;;;;;13.05;84.30;100090.59;112227;1205;22450;-60
2021/08/28 06:59:55;;;;;;;12.30;3.20;;;;;;;13.09;84.00;100089.35;112282;1203;23739;-60
2021/08/28 07:02:30;;;;;;;10.90;3.20;;;;;;;13.13;84.37;100087.65;112051;1206;22497;-61
2021/08/28 07:05:00;;;;;;;14.90;4.40;;;;;;;13.20;84.44;100086.56;112105;1203;25053;-61
2021/08/28 07:07:32;;;;;;;11.80;3.70;;;;;;;13.28;84.60;100089.61;112074;1203;24144;-59
2021/08/28 07:10:03;;;;;;;12.90;3.20;;;;;;;13.31;84.12;100087.75;112082;1206;22467;-63
2021/08/28 07:12:34;;;;;;;12.10;3.70;;;;;;;13.36;83.98;100084.10;112133;1202;25217;-60
2021/08/28 07:15:06;;;;;;;10.70;3.70;;;;;;;13.42;83.95;100082.14;112170;1202;26294;-68
2021/08/28 07:17:37;;;;;;;9.90;3.40;;;;;;;13.47;83.66;100087.73;112050;1202;25660;-60
2021/08/28 07:20:10;;;;;;;10.80;3.60;;;;;;;13.50;83.59;100090.74;112143;1202;24200;-60
2021/08/28 07:22:44;;;;;;;10.70;4.30;;;;;;;13.55;83.89;100093.93;112734;1203;23917;-61
2021/08/28 07:25:18;;;;;;;12.80;3.60;;;;;;;13.61;83.58;100098.39;112259;1202;22582;-60
2021/08/28 07:27:50;;;;;;;13.40;3.80;;;;;;;13.66;83.66;100098.63;111873;1203;22452;-59
2021/08/28 07:30:25;;;;;;;15.00;6.10;;;;;;;13.72;83.26;100103.91;111764;1202;26439;-60
2021/08/28 07:32:56;;;;;;;15.40;6.10;;;;;;;13.75;83.24;100102.70;111931;1201;22448;-58
2021/08/28 07:35:28;;;;;;;17.00;6.10;;;;;;;13.76;83.34;100104.64;112071;1201;22906;-58
2021/08/28 07:38:02;;;;;;;14.90;5.30;;;;;;;13.77;83.50;100103.31;112394;1201;22552;-60
2021/08/28 07:40:33;;;;;;;10.60;3.90;;;;;;;13.82;83.56;100103.33;112142;1202;22451;-61
2021/08/28 07:43:06;;;;;;;14.30;4.60;;;;;;;13.90;83.25;100105.86;112390;1201;22427;-60
2021/08/28 07:45:38;;;;;;;9.70;3.70;;;;;;;13.99;83.32;100102.67;112242;1202;22445;-59
2021/08/28 07:48:10;;;;;;;9.50;3.70;;;;;;;14.04;82.88;100101.83;112019;1201;22557;-59
2021/08/28 07:50:41;;;;;;;10.40;4.50;;;;;;;14.07;82.52;100099.58;111892;1201;22447;-62
2021/08/28 07:53:18;;;;;;;9.00;3.70;;;;;;;14.11;82.62;100100.46;111876;1206;24546;-62
2021/08/28 07:55:54;;;;;;;13.70;5.40;;;;;;;14.19;82.68;100097.92;112120;1205;22451;-61
2021/08/28 07:58:27;;;;;;;8.10;2.90;;;;;;;14.25;82.30;100095.64;112162;1202;22441;-59
2021/08/28 08:00:58;;;;;;;10.60;3.50;;;;;;;14.29;82.10;100096.04;112441;1202;22432;-62
2021/08/28 08:03:31;;;;;;;9.10;3.30;;;;;;;14.35;82.21;100099.77;112013;1201;22464;-61
2021/08/28 08:06:06;;;;;;;9.50;2.70;;;;;;;14.39;81.63;100105.65;112034;1202;22984;-61
2021/08/28 08:08:40;;;;;;;8.20;3.10;;;;;;;14.44;82.12;100105.18;112369;1202;22438;-60
2021/08/28 08:11:15;;;;;;;9.90;3.20;;;;;;;14.51;81.60;100106.84;112195;1200;24514;-62
2021/08/28 08:13:48;;;;;;;7.40;2.80;;;;;;;14.57;81.18;100103.47;112032;1202;22740;-61
2021/08/28 08:16:20;;;;;;;8.20;2.60;;;;;;;14.63;81.19;100101.54;111919;1202;25088;-59
2021/08/28 08:18:52;;;;;;;11.30;4.00;;;;;;;14.70;81.15;100100.66;113648;1201;22447;-66
2021/08/28 08:21:23;;;;;;;10.30;3.00;;;;;;;14.75;80.86;100100.52;112117;1203;22443;-59
2021/08/28 08:23:56;;;;;;;11.00;3.20;;;;;;;14.81;80.76;100098.37;112010;1200;22431;-57
2021/08/28 08:26:28;;;;;;;11.20;3.10;;;;;;;14.88;80.71;100095.08;112122;1201;22440;-59
2021/08/28 08:29:00;;;;;;;10.40;3.30;;;;;;;14.93;80.92;100088.85;112079;1202;25190;-57
2021/08/28 08:31:33;;;;;;;9.00;3.10;;;;;;;15.07;81.57;100093.54;112087;1201;25107;-55
2021/08/28 08:34:04;;;;;;;8.60;2.70;;;;;;;15.20;81.18;100092.54;111750;1202;22465;-57
2021/08/28 08:36:35;;;;;;;7.10;2.50;;;;;;;15.33;80.84;100089.23;111867;1202;25091;-61
2021/08/28 08:39:06;;;;;;;7.40;2.40;;;;;;;15.45;80.34;100088.81;112024;1202;25225;-60
2021/08/28 08:41:39;;;;;;;7.30;2.40;;;;;;;15.54;80.07;100090.89;111937;1201;22501;-58
2021/08/28 08:44:12;;;;;;;9.60;3.10;;;;;;;15.58;79.44;100089.65;112175;1203;24132;-58
2021/08/28 08:46:47;;;;;;;6.40;1.70;;;;;;;15.63;79.46;100089.23;112112;1201;25157;-56
2021/08/28 08:49:19;;;;;;;5.00;1.60;;;;;;;15.66;79.01;100086.23;111989;1201;25144;-58
2021/08/28 08:51:52;;;;;;;7.50;1.60;;;;;;;15.69;78.69;100084.99;111950;1202;23127;-57
2021/08/28 08:54:24;;;;;;;10.10;2.30;;;;;;;15.72;78.56;100086.78;111909;1202;22971;-58
2021/08/28 08:56:56;;;;;;;8.80;2.50;;;;;;;15.77;78.66;100091.55;112142;1202;22443;-58
2021/08/28 08:59:27;;;;;;;6.90;2.10;;;;;;;15.83;78.25;100094.35;111969;1202;25116;-59
2021/08/28 09:01:57;;;;;;;6.10;1.70;;;;;;;15.89;77.97;100094.79;111841;1202;22429;-57
2021/08/28 09:04:29;;;;;;;4.50;1.30;;;;;;;15.94;77.70;100097.01;112279;1201;22443;-56
2021/08/28 09:07:00;;;;;;;5.30;1.50;;;;;;;15.99;77.16;100100.98;111940;1202;22363;-57
2021/08/28 09:09:31;;;;;;;7.80;2.00;;;;;;;16.05;77.56;100103.55;111963;1201;22432;-57
2021/08/28 09:12:05;;;;;;;6.70;1.90;;;;;;;16.12;77.34;100102.48;111782;1201;25312;-57
2021/08/28 09:14:36;;;;;;;6.80;1.50;;;;;;;16.20;77.02;100099.43;111919;1205;22452;-55
2021/08/28 09:17:19;;;;;;;6.80;1.50;;;;;;;16.28;76.98;100101.95;111804;1203;22454;-57
2021/08/28 09:19:53;;;;;;;5.10;1.50;;;;;;;16.38;76.70;100096.54;112012;1205;25453;-57
2021/08/28 09:22:27;;;;;;;8.40;1.80;;;;;;;16.49;76.73;100098.73;111903;1203;25059;-57
2021/08/28 09:25:12;;;;;;;;;;;;;;;;;;;;;
2021/08/28 09:27:45;;;;;;;5.60;1.30;;;;;;;16.71;75.94;100098.98;111956;1202;24163;-56
2021/08/28 09:30:22;;;;;;;4.80;1.20;;;;;;;16.78;75.41;100099.14;112882;1201;25371;-55
2021/08/28 09:32:56;;;;;;;4.90;1.20;;;;;;;16.82;75.31;100098.11;112145;1201;22479;-55
2021/08/28 09:35:32;;;;;;;4.80;1.30;;;;;;;16.90;75.17;100098.35;112795;1201;23531;-57
2021/08/28 09:38:05;;;;;;;3.80;1.10;;;;;;;17.01;75.21;100097.79;111930;1201;25078;-57
2021/08/28 09:40:39;;;;;;;5.20;1.20;;;;;;;17.12;74.93;100094.21;112043;1201;22512;-55
2021/08/28 09:43:12;;;;;;;9.30;1.10;;;;;;;17.15;74.35;100092.94;112073;1202;22445;-58
2021/08/28 09:45:46;;;;;;;5.30;1.30;;;;;;;17.19;74.15;100091.78;111964;1202;22437;-57
2021/08/28 09:48:19;;;;;;;4.40;1.20;;;;;;;17.24;74.01;100097.83;112077;1201;22444;-57
2021/08/28 09:50:54;;;;;;;4.80;1.40;;;;;;;17.25;73.32;100101.26;111974;1202;22447;-58
2021/08/28 09:53:29;;;;;;;6.20;1.20;;;;;;;17.21;72.80;100099.70;112010;1201;25147;-54
2021/08/28 09:56:04;;;;;;;3.90;1.20;;;;;;;17.18;72.99;100096.77;111985;1202;25251;-57
2021/08/28 09:58:35;;;;;;;6.20;1.30;;;;;;;17.23;72.96;100100.00;112110;1201;24090;-57
2021/08/28 10:01:07;;;;;;;4.50;1.10;;;;;;;17.27;72.85;100097.33;111953;1202;25079;-55
2021/08/28 10:03:38;;;;;;;5.10;0.80;;;;;;;17.33;72.29;100102.40;111964;1202;22463;-54
2021/08/28 10:06:09;;;;;;;2.70;0.70;;;;;;;17.37;72.13;100100.52;111932;1202;25144;-55
2021/08/28 10:08:42;;;;;;;4.00;0.80;;;;;;;17.40;71.09;100101.45;112074;1196;25091;-56
2021/08/28 10:11:14;;;;;;;4.10;0.70;;;;;;;17.39;69.89;100098.48;112092;1201;24894;-57
2021/08/28 10:13:47;;;;;;;1.70;0.50;;;;;;;17.37;69.31;100099.95;112162;1202;25153;-56
2021/08/28 10:16:19;;;;;;;3.00;0.40;;;;;;;17.37;68.71;100101.40;112120;1203;22447;-56
2021/08/28 10:18:51;;;;;;;2.20;0.40;;;;;;;17.37;68.46;100102.41;112053;1202;23107;-56
2021/08/28 10:21:25;;;;;;;1.30;0.40;;;;;;;17.44;69.28;100103.92;112244;1202;24098;-54
2021/08/28 10:23:56;;;;;;;3.10;0.40;;;;;;;17.54;68.37;100102.19;112101;1201;25177;-55
2021/08/28 10:26:27;;;;;;;1.60;0.40;;;;;;;17.64;68.49;100104.75;111902;1202;22445;-55
2021/08/28 10:29:04;;;;;;;2.40;0.50;;;;;;;17.75;68.23;100104.50;111900;1201;23518;-57
2021/08/28 10:31:35;;;;;;;2.30;0.40;;;;;;;17.89;68.17;100102.96;111944;1202;22461;-55
2021/08/28 10:34:09;;;;;;;2.20;0.40;;;;;;;17.97;67.20;100104.39;111936;1203;24106;-57
2021/08/28 10:36:41;;;;;;;3.30;0.50;;;;;;;18.01;66.83;100100.07;111938;1202;25147;-54
2021/08/28 10:39:12;;;;;;;2.20;0.40;;;;;;;18.07;66.46;100098.24;111914;1202;22450;-56
2021/08/28 10:41:43;;;;;;;3.20;0.40;;;;;;;18.08;65.56;100099.27;112066;1201;22453;-56
2021/08/28 10:44:17;;;;;;;1.50;0.30;;;;;;;18.07;65.68;100096.91;112036;1201;22469;-55
2021/08/28 10:46:48;;;;;;;2.60;0.40;;;;;;;18.04;65.37;100100.50;112071;1201;24124;-57
2021/08/28 10:49:25;;;;;;;1.50;0.50;;;;;;;18.03;65.69;100100.98;112016;1202;24092;-55
2021/08/28 10:52:03;;;;;;;2.20;0.30;;;;;;;18.06;65.95;100098.71;112224;1202;22402;-58
2021/08/28 10:54:35;;;;;;;2.30;0.40;;;;;;;18.16;66.26;100098.63;112347;1197;25084;-58
2021/08/28 10:57:06;;;;;;;1.60;0.50;;;;;;;18.25;66.38;100098.29;112202;1202;25166;-57
2021/08/28 10:59:43;;;;;;;3.00;0.60;;;;;;;18.34;65.82;100098.99;112040;1202;23111;-55
2021/08/28 11:02:15;;;;;;;2.80;0.50;;;;;;;18.42;65.46;100096.92;112045;1202;25246;-55
2021/08/28 11:04:47;;;;;;;2.20;0.60;;;;;;;18.49;65.26;100092.67;112014;1203;22469;-59
2021/08/28 11:07:27;;;;;;;1.60;0.50;;;;;;;18.51;64.80;100092.18;112042;1201;22426;-56
2021/08/28 11:10:12;;;;;;;6.20;0.50;;;;;;;18.55;65.13;100091.14;112188;1201;24101;-55
2021/08/28 11:13:01;;;;;;;1.50;0.30;;;;;;;18.65;64.57;100092.59;112373;1200;24083;-57
2021/08/28 11:15:55;;;;;;;2.20;0.50;;;;;;;18.71;64.07;100092.16;112425;1203;22946;-58
2021/08/28 11:18:45;;;;;;;1.70;0.30;;;;;;;18.76;64.19;100096.24;112188;1201;22434;-55
2021/08/28 11:21:16;;;;;;;1.00;0.30;;;;;;;18.80;64.09;100090.48;112174;1201;22427;-58
2021/08/28 11:23:53;;;;;;;1.60;0.30;;;;;;;18.87;64.17;100096.33;112076;1202;22451;-56
2021/08/28 11:26:40;;;;;;;2.10;0.40;;;;;;;18.94;64.17;100100.33;112106;1202;26323;-57
2021/08/28 11:29:23;;;;;;;2.10;0.40;;;;;;;18.96;63.68;100093.65;112040;1202;25626;-56
2021/08/28 11:32:10;;;;;;;3.20;0.40;;;;;;;18.99;63.02;100095.59;112096;1202;22450;-55
2021/08/28 11:34:51;;;;;;;2.40;0.40;;;;;;;18.94;62.70;100098.64;112376;1202;22453;-57
2021/08/28 11:37:45;;;;;;;1.90;0.40;;;;;;;18.92;62.98;100103.75;112210;1202;25178;-55
2021/08/28 11:40:33;;;;;;;2.00;0.50;;;;;;;18.89;62.61;100099.64;112245;1201;24051;-58
2021/08/28 11:43:05;;;;;;;1.10;0.40;;;;;;;18.89;62.51;100099.08;112385;1202;22454;-57
2021/08/28 11:45:39;;;;;;;1.40;0.40;;;;;;;18.93;63.07;100101.86;112122;1202;24594;-56
2021/08/28 11:48:15;;;;;;;1.60;0.40;;;;;;;18.97;61.98;100103.86;112338;1202;22471;-56
2021/08/28 11:50:46;;;;;;;2.50;0.40;;;;;;;18.94;61.81;100103.66;112203;1202;22450;-57
2021/08/28 11:53:27;;;;;;;0.70;0.30;;;;;;;18.90;61.69;100103.20;112163;1202;25175;-57
2021/08/28 11:56:11;;;;;;;1.00;0.40;;;;;;;18.88;61.58;100103.66;112357;1205;25328;-55
2021/08/28 11:58:57;;;;;;;2.10;0.40;;;;;;;18.88;61.88;100101.29;112311;1202;27101;-56